createdAt,value
2017-06-21T00:00:24.328Z,0.00
2017-06-21T00:01:19.454Z,0.00
2017-06-21T00:02:20.428Z,0.00
2017-06-21T00:03:14.665Z,0.00
2017-06-21T00:04:02.607Z,0.00
2017-06-21T00:04:56.629Z,0.00
2017-06-21T00:05:50.620Z,0.00
2017-06-21T00:06:45.678Z,0.00
2017-06-21T00:07:40.727Z,0.00
2017-06-21T00:08:29.740Z,0.00
2017-06-21T00:09:18.796Z,0.00
2017-06-21T00:10:12.730Z,0.00
2017-06-21T00:11:06.902Z,0.00
2017-06-21T00:12:12.947Z,0.00
2017-06-21T00:13:12.971Z,0.00
2017-06-21T00:14:08.041Z,0.00
2017-06-21T00:14:56.500Z,0.00
2017-06-21T00:15:51.034Z,0.00
2017-06-21T00:16:51.099Z,0.00
2017-06-21T00:17:45.330Z,0.00
2017-06-21T00:18:44.928Z,0.00
2017-06-21T00:19:34.265Z,0.00
2017-06-21T00:20:22.374Z,0.00
2017-06-21T00:21:10.903Z,0.00
2017-06-21T00:22:05.853Z,0.00
2017-06-21T00:23:00.479Z,0.00
2017-06-21T00:24:00.070Z,0.00
2017-06-21T00:25:00.363Z,0.00
2017-06-21T00:25:49.455Z,0.00
2017-06-21T00:26:43.468Z,0.00
2017-06-21T00:27:49.635Z,0.00
2017-06-21T00:28:43.629Z,0.00
2017-06-21T00:29:32.673Z,0.00
2017-06-21T00:30:27.676Z,0.00
2017-06-21T00:31:21.662Z,0.00
2017-06-21T00:32:16.710Z,0.00
2017-06-21T00:33:16.291Z,0.00
2017-06-21T00:34:11.042Z,0.00
2017-06-21T00:35:05.786Z,0.00
2017-06-21T00:36:00.426Z,0.00
2017-06-21T00:36:54.404Z,0.00
2017-06-21T00:37:50.050Z,0.00
2017-06-21T00:38:39.032Z,0.00
2017-06-21T00:39:34.108Z,0.00
2017-06-21T00:40:33.621Z,0.00
2017-06-21T00:41:23.053Z,0.00
2017-06-21T00:42:16.665Z,0.00
2017-06-21T00:43:12.316Z,0.00
2017-06-21T00:44:11.745Z,0.00
2017-06-21T00:45:17.750Z,0.00
2017-06-21T00:46:11.833Z,0.00
2017-06-21T00:47:06.901Z,0.00
2017-06-21T00:48:07.103Z,0.00
2017-06-21T00:49:01.229Z,0.00
2017-06-21T00:49:54.977Z,0.00
2017-06-21T00:50:49.039Z,0.00
2017-06-21T00:51:44.061Z,0.00
2017-06-21T00:52:38.356Z,0.00
2017-06-21T00:53:32.554Z,0.00
2017-06-21T00:54:32.182Z,0.00
2017-06-21T00:55:32.535Z,0.00
2017-06-21T00:56:26.211Z,0.00
2017-06-21T00:57:15.300Z,0.00
2017-06-21T00:58:09.899Z,0.00
2017-06-21T00:59:03.372Z,0.00
2017-06-21T00:59:58.348Z,0.00
2017-06-21T01:00:47.411Z,0.00
2017-06-21T01:01:42.504Z,0.00
2017-06-21T01:02:30.491Z,0.00
2017-06-21T01:03:30.577Z,0.00
2017-06-21T01:04:25.594Z,0.00
2017-06-21T01:05:25.579Z,0.00
2017-06-21T01:06:20.679Z,0.00
2017-06-21T01:07:14.877Z,0.00
2017-06-21T01:08:15.105Z,0.00
2017-06-21T01:09:08.794Z,0.00
2017-06-21T01:09:57.798Z,0.00
2017-06-21T01:10:51.859Z,0.00
2017-06-21T01:11:57.868Z,0.00
2017-06-21T01:12:52.258Z,0.00
2017-06-21T01:13:45.928Z,0.00
2017-06-21T01:14:34.965Z,0.00
2017-06-21T01:15:35.047Z,0.00
2017-06-21T01:16:29.098Z,0.00
2017-06-21T01:17:29.095Z,0.00
2017-06-21T01:18:24.140Z,0.00
2017-06-21T01:19:18.138Z,0.00
2017-06-21T01:20:07.212Z,0.00
2017-06-21T01:21:01.225Z,0.00
2017-06-21T01:22:01.251Z,0.00
2017-06-21T01:22:56.370Z,0.00
2017-06-21T01:23:51.659Z,0.00
2017-06-21T01:24:51.404Z,0.00
2017-06-21T01:25:45.528Z,0.00
2017-06-21T01:26:45.491Z,0.00
2017-06-21T01:27:40.461Z,0.00
2017-06-21T01:28:34.579Z,0.00
2017-06-21T01:29:30.208Z,0.00
2017-06-21T01:30:23.601Z,0.00
2017-06-21T01:31:24.608Z,0.00
2017-06-21T01:32:12.938Z,0.00
2017-06-21T01:33:01.833Z,0.00
2017-06-21T01:33:56.192Z,0.00
2017-06-21T01:34:50.768Z,0.00
2017-06-21T01:35:44.884Z,0.00
2017-06-21T01:36:39.897Z,0.00
2017-06-21T01:37:33.920Z,0.00
2017-06-21T01:38:27.965Z,0.00
2017-06-21T01:39:21.993Z,0.00
2017-06-21T01:40:16.128Z,0.00
2017-06-21T01:41:17.636Z,0.00
2017-06-21T01:42:12.108Z,0.00
2017-06-21T01:43:01.232Z,0.00
2017-06-21T01:43:56.154Z,0.00
2017-06-21T01:44:50.189Z,0.00
2017-06-21T01:45:44.307Z,0.00
2017-06-21T01:46:33.267Z,0.00
2017-06-21T01:47:33.639Z,0.00
2017-06-21T01:48:28.377Z,0.00
2017-06-21T01:49:22.358Z,0.00
2017-06-21T01:50:22.474Z,0.00
2017-06-21T01:51:16.496Z,0.00
2017-06-21T01:52:22.510Z,0.00
2017-06-21T01:53:16.691Z,0.00
2017-06-21T01:54:11.618Z,0.00
2017-06-21T01:55:05.715Z,0.00
2017-06-21T01:56:06.261Z,0.00
2017-06-21T01:56:54.800Z,0.00
2017-06-21T01:57:48.713Z,0.00
2017-06-21T01:58:36.776Z,0.00
2017-06-21T01:59:25.817Z,0.00
2017-06-21T02:00:13.885Z,0.00
2017-06-21T02:01:07.889Z,0.00
2017-06-21T02:02:02.106Z,0.00
2017-06-21T02:02:56.363Z,0.00
2017-06-21T02:03:56.008Z,0.00
2017-06-21T02:04:45.125Z,0.00
2017-06-21T02:05:40.082Z,0.00
2017-06-21T02:06:34.133Z,0.00
2017-06-21T02:07:29.208Z,0.00
2017-06-21T02:08:18.515Z,0.00
2017-06-21T02:09:13.592Z,0.00
2017-06-21T02:10:07.967Z,0.00
2017-06-21T02:11:07.322Z,0.00
2017-06-21T02:12:01.372Z,0.00
2017-06-21T02:12:56.050Z,0.00
2017-06-21T02:13:49.481Z,0.00
2017-06-21T02:14:44.515Z,0.00
2017-06-21T02:15:38.562Z,0.00
2017-06-21T02:16:27.574Z,0.00
2017-06-21T02:17:21.572Z,0.00
2017-06-21T02:18:17.249Z,0.00
2017-06-21T02:19:10.731Z,0.00
2017-06-21T02:20:05.678Z,0.00
2017-06-21T02:21:00.740Z,0.00
2017-06-21T02:21:55.280Z,0.00
2017-06-21T02:22:50.404Z,0.00
2017-06-21T02:23:38.902Z,0.00
2017-06-21T02:24:26.885Z,0.00
2017-06-21T02:25:26.994Z,0.00
2017-06-21T02:26:26.970Z,0.00
2017-06-21T02:27:15.012Z,0.00
2017-06-21T02:28:03.567Z,0.00
2017-06-21T02:28:52.663Z,0.00
2017-06-21T02:29:46.161Z,0.00
2017-06-21T02:30:40.174Z,0.00
2017-06-21T02:31:34.201Z,0.00
2017-06-21T02:32:34.862Z,0.00
2017-06-21T02:33:23.917Z,0.00
2017-06-21T02:34:18.396Z,0.00
2017-06-21T02:35:13.740Z,0.00
2017-06-21T02:36:07.439Z,0.00
2017-06-21T02:37:02.504Z,0.00
2017-06-21T02:37:56.646Z,0.00
2017-06-21T02:38:44.765Z,0.00
2017-06-21T02:39:38.703Z,0.00
2017-06-21T02:40:39.647Z,0.00
2017-06-21T02:41:33.658Z,0.00
2017-06-21T02:42:34.333Z,0.00
2017-06-21T02:43:22.740Z,0.00
2017-06-21T02:44:16.829Z,0.00
2017-06-21T02:45:16.866Z,0.00
2017-06-21T02:46:10.813Z,0.00
2017-06-21T02:47:04.855Z,0.00
2017-06-21T02:47:52.918Z,0.00
2017-06-21T02:48:53.092Z,0.00
2017-06-21T02:49:42.018Z,0.00
2017-06-21T02:50:30.344Z,0.00
2017-06-21T02:51:19.400Z,0.00
2017-06-21T02:52:19.354Z,0.00
2017-06-21T02:53:19.152Z,0.00
2017-06-21T02:54:14.169Z,0.00
2017-06-21T02:55:14.227Z,0.00
2017-06-21T02:56:14.294Z,0.00
2017-06-21T02:57:08.310Z,0.00
2017-06-21T02:58:08.459Z,0.00
2017-06-21T02:59:02.380Z,0.00
2017-06-21T02:59:56.368Z,0.00
2017-06-21T03:00:56.398Z,0.00
2017-06-21T03:01:51.576Z,0.00
2017-06-21T03:02:51.486Z,0.00
2017-06-21T03:03:46.543Z,0.00
2017-06-21T03:04:40.591Z,0.00
2017-06-21T03:05:35.561Z,0.00
2017-06-21T03:06:36.665Z,0.00
2017-06-21T03:07:32.559Z,0.00
2017-06-21T03:08:31.718Z,0.01
2017-06-21T03:09:31.859Z,0.01
2017-06-21T03:10:31.849Z,0.01
2017-06-21T03:11:31.811Z,0.01
2017-06-21T03:12:32.671Z,0.01
2017-06-21T03:13:32.117Z,0.01
2017-06-21T03:14:31.877Z,0.01
2017-06-21T03:15:32.669Z,0.01
2017-06-21T03:16:32.338Z,0.01
2017-06-21T03:17:32.695Z,0.01
2017-06-21T03:18:32.590Z,0.01
2017-06-21T03:19:32.726Z,0.01
2017-06-21T03:20:26.632Z,0.01
2017-06-21T03:21:20.656Z,0.01
2017-06-21T03:22:20.705Z,0.01
2017-06-21T03:23:14.736Z,0.02
2017-06-21T03:24:09.725Z,0.02
2017-06-21T03:25:04.849Z,0.02
2017-06-21T03:25:58.875Z,0.02
2017-06-21T03:26:53.921Z,0.02
2017-06-21T03:27:54.887Z,0.02
2017-06-21T03:28:48.959Z,0.02
2017-06-21T03:29:44.032Z,0.02
2017-06-21T03:30:44.036Z,0.02
2017-06-21T03:31:39.121Z,0.02
2017-06-21T03:32:34.214Z,0.02
2017-06-21T03:33:28.170Z,0.02
2017-06-21T03:34:28.196Z,0.02
2017-06-21T03:35:17.272Z,0.02
2017-06-21T03:36:11.337Z,0.02
2017-06-21T03:37:11.357Z,0.03
2017-06-21T03:38:05.453Z,0.03
2017-06-21T03:39:06.315Z,0.03
2017-06-21T03:40:12.420Z,0.03
2017-06-21T03:41:07.477Z,0.03
2017-06-21T03:42:02.466Z,0.03
2017-06-21T03:42:50.515Z,0.03
2017-06-21T03:43:50.580Z,0.03
2017-06-21T03:44:45.603Z,0.03
2017-06-21T03:45:39.687Z,0.03
2017-06-21T03:46:35.117Z,0.03
2017-06-21T03:47:28.725Z,0.04
2017-06-21T03:48:22.796Z,0.04
2017-06-21T03:49:17.837Z,0.04
2017-06-21T03:50:11.889Z,0.04
2017-06-21T03:50:59.879Z,0.04
2017-06-21T03:52:01.007Z,0.04
2017-06-21T03:53:00.943Z,0.04
2017-06-21T03:54:01.024Z,0.04
2017-06-21T03:55:01.014Z,0.04
2017-06-21T03:56:01.188Z,0.05
2017-06-21T03:57:01.045Z,0.05
2017-06-21T03:57:56.148Z,0.05
2017-06-21T03:58:51.126Z,0.05
2017-06-21T03:59:52.235Z,0.05
2017-06-21T04:00:52.230Z,0.05
2017-06-21T04:01:46.264Z,0.05
2017-06-21T04:02:46.353Z,0.05
2017-06-21T04:03:46.370Z,0.05
2017-06-21T04:04:46.365Z,0.05
2017-06-21T04:05:40.382Z,0.06
2017-06-21T04:06:35.500Z,0.06
2017-06-21T04:07:36.615Z,0.06
2017-06-21T04:08:36.090Z,0.06
2017-06-21T04:09:30.350Z,0.06
2017-06-21T04:10:24.421Z,0.06
2017-06-21T04:11:18.380Z,0.06
2017-06-21T04:12:19.446Z,0.07
2017-06-21T04:13:07.592Z,0.07
2017-06-21T04:14:07.484Z,0.07
2017-06-21T04:15:01.647Z,0.07
2017-06-21T04:15:55.336Z,0.07
2017-06-21T04:16:55.405Z,0.07
2017-06-21T04:17:43.824Z,0.07
2017-06-21T04:18:44.640Z,0.07
2017-06-21T04:19:44.929Z,0.08
2017-06-21T04:20:39.530Z,0.08
2017-06-21T04:21:27.589Z,0.08
2017-06-21T04:22:16.076Z,0.08
2017-06-21T04:23:15.612Z,0.08
2017-06-21T04:24:10.777Z,0.08
2017-06-21T04:25:11.110Z,0.08
2017-06-21T04:26:06.303Z,0.08
2017-06-21T04:27:06.398Z,0.09
2017-06-21T04:28:01.387Z,0.09
2017-06-21T04:28:55.427Z,0.09
2017-06-21T04:29:50.393Z,0.10
2017-06-21T04:30:43.994Z,0.11
2017-06-21T04:31:39.006Z,0.13
2017-06-21T04:32:38.967Z,0.14
2017-06-21T04:33:34.053Z,0.14
2017-06-21T04:34:28.091Z,0.15
2017-06-21T04:35:34.248Z,0.15
2017-06-21T04:36:29.608Z,0.16
2017-06-21T04:37:23.256Z,0.16
2017-06-21T04:38:18.302Z,0.16
2017-06-21T04:39:18.316Z,0.15
2017-06-21T04:40:12.755Z,0.15
2017-06-21T04:41:12.425Z,0.15
2017-06-21T04:42:06.425Z,0.14
2017-06-21T04:43:07.872Z,0.14
2017-06-21T04:44:01.722Z,0.15
2017-06-21T04:44:55.539Z,0.15
2017-06-21T04:45:50.573Z,0.15
2017-06-21T04:46:45.610Z,0.15
2017-06-21T04:47:34.301Z,0.15
2017-06-21T04:48:34.706Z,0.16
2017-06-21T04:49:34.776Z,0.16
2017-06-21T04:50:22.812Z,0.16
2017-06-21T04:51:18.257Z,0.16
2017-06-21T04:52:12.065Z,0.16
2017-06-21T04:53:01.509Z,0.16
2017-06-21T04:53:56.083Z,0.16
2017-06-21T04:54:56.573Z,0.17
2017-06-21T04:55:51.539Z,0.17
2017-06-21T04:56:39.707Z,0.17
2017-06-21T04:57:33.839Z,0.18
2017-06-21T04:58:28.383Z,0.19
2017-06-21T04:59:28.640Z,0.20
2017-06-21T05:00:22.927Z,0.21
2017-06-21T05:01:17.895Z,0.23
2017-06-21T05:02:11.916Z,0.23
2017-06-21T05:03:06.815Z,0.24
2017-06-21T05:04:08.042Z,0.25
2017-06-21T05:05:02.097Z,0.25
2017-06-21T05:05:56.095Z,0.25
2017-06-21T05:06:50.185Z,0.26
2017-06-21T05:07:39.182Z,0.25
2017-06-21T05:08:33.297Z,0.26
2017-06-21T05:09:21.358Z,0.26
2017-06-21T05:10:10.400Z,0.26
2017-06-21T05:11:05.450Z,0.27
2017-06-21T05:12:05.422Z,0.27
2017-06-21T05:12:54.434Z,0.27
2017-06-21T05:13:48.529Z,0.27
2017-06-21T05:14:48.541Z,0.27
2017-06-21T05:15:42.622Z,0.28
2017-06-21T05:16:36.744Z,0.27
2017-06-21T05:17:31.733Z,0.28
2017-06-21T05:18:20.808Z,0.29
2017-06-21T05:19:09.831Z,0.28
2017-06-21T05:20:03.881Z,0.28
2017-06-21T05:20:58.894Z,0.29
2017-06-21T05:21:59.955Z,0.29
2017-06-21T05:22:55.015Z,0.29
2017-06-21T05:23:49.042Z,0.29
2017-06-21T05:24:49.055Z,0.29
2017-06-21T05:25:49.160Z,0.29
2017-06-21T05:26:43.222Z,0.29
2017-06-21T05:27:43.211Z,0.29
2017-06-21T05:28:38.229Z,0.29
2017-06-21T05:29:38.285Z,0.30
2017-06-21T05:30:38.450Z,0.29
2017-06-21T05:31:38.540Z,0.30
2017-06-21T05:32:38.488Z,0.31
2017-06-21T05:33:38.677Z,0.33
2017-06-21T05:34:38.492Z,0.33
2017-06-21T05:35:33.568Z,0.34
2017-06-21T05:36:33.785Z,0.33
2017-06-21T05:37:28.656Z,0.32
2017-06-21T05:38:22.614Z,0.33
2017-06-21T05:39:17.710Z,0.34
2017-06-21T05:40:12.750Z,0.35
2017-06-21T05:41:07.821Z,0.36
2017-06-21T05:42:02.961Z,0.34
2017-06-21T05:42:56.932Z,0.37
2017-06-21T05:43:56.951Z,0.38
2017-06-21T05:44:51.321Z,0.38
2017-06-21T05:45:51.080Z,0.38
2017-06-21T05:46:45.161Z,0.38
2017-06-21T05:47:39.227Z,0.38
2017-06-21T05:48:28.261Z,0.38
2017-06-21T05:49:22.286Z,0.38
2017-06-21T05:50:22.560Z,0.38
2017-06-21T05:51:22.318Z,0.38
2017-06-21T05:52:22.439Z,0.39
2017-06-21T05:53:17.493Z,0.39
2017-06-21T05:54:11.544Z,0.39
2017-06-21T05:55:11.594Z,0.38
2017-06-21T05:56:06.661Z,0.38
2017-06-21T05:56:55.656Z,0.36
2017-06-21T05:57:49.728Z,0.35
2017-06-21T05:58:44.215Z,0.34
2017-06-21T05:59:39.561Z,0.35
2017-06-21T06:00:33.986Z,0.36
2017-06-21T06:01:27.442Z,0.36
2017-06-21T06:02:16.781Z,0.36
2017-06-21T06:03:10.975Z,0.37
2017-06-21T06:04:10.643Z,0.37
2017-06-21T06:05:11.991Z,0.37
2017-06-21T06:06:06.180Z,0.37
2017-06-21T06:07:01.313Z,0.36
2017-06-21T06:08:02.355Z,0.37
2017-06-21T06:08:56.433Z,0.40
2017-06-21T06:09:50.168Z,0.40
2017-06-21T06:10:49.953Z,0.40
2017-06-21T06:11:39.106Z,0.40
2017-06-21T06:12:34.990Z,0.41
2017-06-21T06:13:23.240Z,0.41
2017-06-21T06:14:18.135Z,0.42
2017-06-21T06:15:18.183Z,0.43
2017-06-21T06:16:12.584Z,0.44
2017-06-21T06:17:12.512Z,0.45
2017-06-21T06:18:07.219Z,0.44
2017-06-21T06:19:06.889Z,0.44
2017-06-21T06:20:00.900Z,0.45
2017-06-21T06:21:02.053Z,0.47
2017-06-21T06:21:56.075Z,0.47
2017-06-21T06:22:44.072Z,0.48
2017-06-21T06:23:33.472Z,0.49
2017-06-21T06:24:28.254Z,0.50
2017-06-21T06:25:29.204Z,0.51
2017-06-21T06:26:18.261Z,0.51
2017-06-21T06:27:12.384Z,0.51
2017-06-21T06:28:12.441Z,0.50
2017-06-21T06:29:06.521Z,0.50
2017-06-21T06:30:01.580Z,0.50
2017-06-21T06:30:55.613Z,0.50
2017-06-21T06:31:43.682Z,0.51
2017-06-21T06:32:37.850Z,0.50
2017-06-21T06:33:31.745Z,0.46
2017-06-21T06:34:25.832Z,0.49
2017-06-21T06:35:20.313Z,0.49
2017-06-21T06:36:20.880Z,0.50
2017-06-21T06:37:14.813Z,0.45
2017-06-21T06:38:15.021Z,0.52
2017-06-21T06:39:08.594Z,0.53
2017-06-21T06:40:03.624Z,0.54
2017-06-21T06:40:53.197Z,0.55
2017-06-21T06:41:47.250Z,0.56
2017-06-21T06:42:41.150Z,0.57
2017-06-21T06:43:30.446Z,0.58
2017-06-21T06:44:25.401Z,0.55
2017-06-21T06:45:14.053Z,0.50
2017-06-21T06:46:07.976Z,0.58
2017-06-21T06:47:02.250Z,0.58
2017-06-21T06:47:56.275Z,0.59
2017-06-21T06:48:51.442Z,0.59
2017-06-21T06:49:51.466Z,0.60
2017-06-21T06:50:51.572Z,0.61
2017-06-21T06:51:46.549Z,0.62
2017-06-21T06:52:41.645Z,0.62
2017-06-21T06:53:35.857Z,0.63
2017-06-21T06:54:24.541Z,0.62
2017-06-21T06:55:20.046Z,0.63
2017-06-21T06:56:14.107Z,0.63
2017-06-21T06:57:09.147Z,0.62
2017-06-21T06:58:03.269Z,0.58
2017-06-21T06:58:51.433Z,0.50
2017-06-21T06:59:52.395Z,0.52
2017-06-21T07:00:52.071Z,0.54
2017-06-21T07:01:41.059Z,0.58
2017-06-21T07:02:30.021Z,0.59
2017-06-21T07:03:24.254Z,0.61
2017-06-21T07:04:18.359Z,0.61
2017-06-21T07:05:12.218Z,0.62
2017-06-21T07:06:01.777Z,0.63
2017-06-21T07:06:49.889Z,0.63
2017-06-21T07:07:39.233Z,0.64
2017-06-21T07:08:38.734Z,0.65
2017-06-21T07:09:32.978Z,0.66
2017-06-21T07:10:32.888Z,0.67
2017-06-21T07:11:27.630Z,0.67
2017-06-21T07:12:22.211Z,0.66
2017-06-21T07:13:15.883Z,0.65
2017-06-21T07:14:05.265Z,0.66
2017-06-21T07:15:00.417Z,0.65
2017-06-21T07:15:48.460Z,0.63
2017-06-21T07:16:42.423Z,0.61
2017-06-21T07:17:31.165Z,0.61
2017-06-21T07:18:25.505Z,0.61
2017-06-21T07:19:20.291Z,0.63
2017-06-21T07:20:14.160Z,0.63
2017-06-21T07:21:14.479Z,0.64
2017-06-21T07:22:08.557Z,0.66
2017-06-21T07:22:57.243Z,0.68
2017-06-21T07:23:50.886Z,0.68
2017-06-21T07:24:39.730Z,0.68
2017-06-21T07:25:34.917Z,0.69
2017-06-21T07:26:29.577Z,0.70
2017-06-21T07:27:23.614Z,0.70
2017-06-21T07:28:19.403Z,0.70
2017-06-21T07:29:07.323Z,0.70
2017-06-21T07:30:01.126Z,0.70
2017-06-21T07:30:55.508Z,0.70
2017-06-21T07:31:50.384Z,0.69
2017-06-21T07:32:44.622Z,0.69
2017-06-21T07:33:44.286Z,0.70
2017-06-21T07:34:39.713Z,0.71
2017-06-21T07:35:34.467Z,0.72
2017-06-21T07:36:23.553Z,0.72
2017-06-21T07:37:18.798Z,0.73
2017-06-21T07:38:12.749Z,0.68
2017-06-21T07:39:07.787Z,0.74
2017-06-21T07:40:01.968Z,0.74
2017-06-21T07:40:56.057Z,0.73
2017-06-21T07:41:43.650Z,0.74
2017-06-21T07:42:33.250Z,0.74
2017-06-21T07:43:27.318Z,0.74
2017-06-21T07:44:22.399Z,0.75
2017-06-21T07:45:16.392Z,0.75
2017-06-21T07:46:10.189Z,0.76
2017-06-21T07:47:04.492Z,0.76
2017-06-21T07:47:52.538Z,0.76
2017-06-21T07:48:47.653Z,0.78
2017-06-21T07:49:41.418Z,0.78
2017-06-21T07:50:36.489Z,0.78
2017-06-21T07:51:37.927Z,0.78
2017-06-21T07:52:26.555Z,0.78
2017-06-21T07:53:21.901Z,0.78
2017-06-21T07:54:16.960Z,0.79
2017-06-21T07:55:10.973Z,0.79
2017-06-21T07:55:59.043Z,0.79
2017-06-21T07:56:53.095Z,0.79
2017-06-21T07:57:42.358Z,0.79
2017-06-21T07:58:36.319Z,0.79
2017-06-21T07:59:31.420Z,0.77
2017-06-21T08:00:19.714Z,0.76
2017-06-21T08:01:08.079Z,0.75
2017-06-21T08:02:08.503Z,0.77
2017-06-21T08:02:57.529Z,0.78
2017-06-21T08:03:52.686Z,0.78
2017-06-21T08:04:41.786Z,0.79
2017-06-21T08:05:36.982Z,0.79
2017-06-21T08:06:36.729Z,0.80
2017-06-21T08:07:32.006Z,0.80
2017-06-21T08:08:25.863Z,0.81
2017-06-21T08:09:15.025Z,0.81
2017-06-21T08:10:09.205Z,0.80
2017-06-21T08:11:03.289Z,0.80
2017-06-21T08:11:58.247Z,0.80
2017-06-21T08:12:52.379Z,0.80
2017-06-21T08:13:46.600Z,0.81
2017-06-21T08:14:35.593Z,0.81
2017-06-21T08:15:30.628Z,0.83
2017-06-21T08:16:25.947Z,0.84
2017-06-21T08:17:19.789Z,0.83
2017-06-21T08:18:19.868Z,0.83
2017-06-21T08:19:14.963Z,0.83
2017-06-21T08:20:09.044Z,0.81
2017-06-21T08:20:57.082Z,0.82
2017-06-21T08:21:52.177Z,0.82
2017-06-21T08:22:46.306Z,0.84
2017-06-21T08:23:40.289Z,0.84
2017-06-21T08:24:40.332Z,0.85
2017-06-21T08:25:28.425Z,0.83
2017-06-21T08:26:22.516Z,0.85
2017-06-21T08:27:16.846Z,0.86
2017-06-21T08:28:11.630Z,0.84
2017-06-21T08:29:05.653Z,0.85
2017-06-21T08:30:00.788Z,0.85
2017-06-21T08:30:54.913Z,0.85
2017-06-21T08:31:54.951Z,0.85
2017-06-21T08:32:49.269Z,0.87
2017-06-21T08:33:44.173Z,0.87
2017-06-21T08:34:38.201Z,0.87
2017-06-21T08:35:33.252Z,0.87
2017-06-21T08:36:27.334Z,0.88
2017-06-21T08:37:15.379Z,0.86
2017-06-21T08:38:04.801Z,0.86
2017-06-21T08:39:04.619Z,0.88
2017-06-21T08:39:59.567Z,0.89
2017-06-21T08:40:53.666Z,0.90
2017-06-21T08:41:48.755Z,0.89
2017-06-21T08:42:37.801Z,0.89
2017-06-21T08:43:31.819Z,0.88
2017-06-21T08:44:20.936Z,0.86
2017-06-21T08:45:15.040Z,0.87
2017-06-21T08:46:10.161Z,0.86
2017-06-21T08:47:04.230Z,0.84
2017-06-21T08:48:05.349Z,0.81
2017-06-21T08:48:54.438Z,0.80
2017-06-21T08:49:48.488Z,0.81
2017-06-21T08:50:42.582Z,0.81
2017-06-21T08:51:31.716Z,0.84
2017-06-21T08:52:31.766Z,0.84
2017-06-21T08:53:25.838Z,0.84
2017-06-21T08:54:19.909Z,0.84
2017-06-21T08:55:09.042Z,0.85
2017-06-21T08:56:03.081Z,0.87
2017-06-21T08:56:57.114Z,0.88
2017-06-21T08:57:51.312Z,0.89
2017-06-21T08:58:40.662Z,0.88
2017-06-21T08:59:29.420Z,0.90
2017-06-21T09:00:18.518Z,0.89
2017-06-21T09:01:13.632Z,0.88
2017-06-21T09:02:08.701Z,0.90
2017-06-21T09:03:03.850Z,0.92
2017-06-21T09:03:59.124Z,0.91
2017-06-21T09:04:46.894Z,0.91
2017-06-21T09:05:36.019Z,0.92
2017-06-21T09:06:31.096Z,0.93
2017-06-21T09:07:20.118Z,0.94
2017-06-21T09:08:15.231Z,0.91
2017-06-21T09:09:09.352Z,0.90
2017-06-21T09:09:58.411Z,0.89
2017-06-21T09:10:52.518Z,0.88
2017-06-21T09:11:41.568Z,0.87
2017-06-21T09:12:30.665Z,0.85
2017-06-21T09:13:19.762Z,0.82
2017-06-21T09:14:13.868Z,0.83
2017-06-21T09:15:07.934Z,0.83
2017-06-21T09:16:03.043Z,0.87
2017-06-21T09:16:57.105Z,0.88
2017-06-21T09:17:51.208Z,0.90
2017-06-21T09:18:46.277Z,0.89
2017-06-21T09:19:41.401Z,0.92
2017-06-21T09:20:36.400Z,0.83
2017-06-21T09:21:30.505Z,0.81
2017-06-21T09:22:19.654Z,0.83
2017-06-21T09:23:13.732Z,0.85
2017-06-21T09:24:08.779Z,0.83
2017-06-21T09:25:02.798Z,0.86
2017-06-21T09:25:56.900Z,0.82
2017-06-21T09:26:56.970Z,0.85
2017-06-21T09:27:46.014Z,0.86
2017-06-21T09:28:40.110Z,0.88
2017-06-21T09:29:40.196Z,0.90
2017-06-21T09:30:34.228Z,0.90
2017-06-21T09:31:34.280Z,0.91
2017-06-21T09:32:34.373Z,0.93
2017-06-21T09:33:29.380Z,0.91
2017-06-21T09:34:24.482Z,0.97
2017-06-21T09:35:13.539Z,0.97
2017-06-21T09:36:13.645Z,0.96
2017-06-21T09:37:01.737Z,0.99
2017-06-21T09:37:49.781Z,1.00
2017-06-21T09:38:43.801Z,1.00
2017-06-21T09:39:31.889Z,0.98
2017-06-21T09:40:19.917Z,0.95
2017-06-21T09:41:20.043Z,0.94
2017-06-21T09:42:14.080Z,0.93
2017-06-21T09:43:09.173Z,0.94
2017-06-21T09:44:03.217Z,0.92
2017-06-21T09:44:51.308Z,0.89
2017-06-21T09:45:45.382Z,0.88
2017-06-21T09:46:33.470Z,0.89
2017-06-21T09:47:21.583Z,0.90
2017-06-21T09:48:21.605Z,0.91
2017-06-21T09:49:15.673Z,0.95
2017-06-21T09:50:15.798Z,0.95
2017-06-21T09:51:09.852Z,0.88
2017-06-21T09:51:58.898Z,0.92
2017-06-21T09:52:52.982Z,0.90
2017-06-21T09:53:46.971Z,0.95
2017-06-21T09:54:41.422Z,0.86
2017-06-21T09:55:41.161Z,0.63
2017-06-21T09:56:36.180Z,0.62
2017-06-21T09:57:36.235Z,0.78
2017-06-21T09:58:30.303Z,0.94
2017-06-21T09:59:31.353Z,0.75
2017-06-21T10:00:31.499Z,0.72
2017-06-21T10:01:20.515Z,0.90
2017-06-21T10:02:09.588Z,0.76
2017-06-21T10:03:03.519Z,0.76
2017-06-21T10:04:03.702Z,0.63
2017-06-21T10:04:52.791Z,0.63
2017-06-21T10:05:46.858Z,0.92
2017-06-21T10:06:46.957Z,0.91
2017-06-21T10:07:36.059Z,0.91
2017-06-21T10:08:30.046Z,0.97
2017-06-21T10:09:31.105Z,0.97
2017-06-21T10:10:31.243Z,0.97
2017-06-21T10:11:26.311Z,0.95
2017-06-21T10:12:21.372Z,0.87
2017-06-21T10:13:09.461Z,0.94
2017-06-21T10:14:03.578Z,0.99
2017-06-21T10:15:04.587Z,1.01
2017-06-21T10:15:53.712Z,1.01
2017-06-21T10:16:48.795Z,1.02
2017-06-21T10:17:44.080Z,0.99
2017-06-21T10:18:32.900Z,0.99
2017-06-21T10:19:22.039Z,0.97
2017-06-21T10:20:16.066Z,1.02
2017-06-21T10:21:11.163Z,1.02
2017-06-21T10:22:05.223Z,1.03
2017-06-21T10:22:59.333Z,1.04
2017-06-21T10:23:53.446Z,1.05
2017-06-21T10:24:41.496Z,1.06
2017-06-21T10:25:36.958Z,1.05
2017-06-21T10:26:25.686Z,1.04
2017-06-21T10:27:19.709Z,0.97
2017-06-21T10:28:19.757Z,1.01
2017-06-21T10:29:13.876Z,0.98
2017-06-21T10:30:07.881Z,0.89
2017-06-21T10:31:02.322Z,0.93
2017-06-21T10:31:56.046Z,0.92
2017-06-21T10:32:51.157Z,0.87
2017-06-21T10:33:46.247Z,0.90
2017-06-21T10:34:40.304Z,0.91
2017-06-21T10:35:46.428Z,0.90
2017-06-21T10:36:41.455Z,0.89
2017-06-21T10:37:30.572Z,0.89
2017-06-21T10:38:30.596Z,0.83
2017-06-21T10:39:18.703Z,0.85
2017-06-21T10:40:07.868Z,0.84
2017-06-21T10:41:01.901Z,0.82
2017-06-21T10:42:02.040Z,0.79
2017-06-21T10:42:56.004Z,0.62
2017-06-21T10:43:44.975Z,0.71
2017-06-21T10:44:34.205Z,0.68
2017-06-21T10:45:22.301Z,0.65
2017-06-21T10:46:10.513Z,0.65
2017-06-21T10:46:59.500Z,0.77
2017-06-21T10:47:47.561Z,0.81
2017-06-21T10:48:42.597Z,0.84
2017-06-21T10:49:31.727Z,0.84
2017-06-21T10:50:31.858Z,0.84
2017-06-21T10:51:20.908Z,0.79
2017-06-21T10:52:14.963Z,0.80
2017-06-21T10:53:10.051Z,0.81
2017-06-21T10:54:10.140Z,0.30
2017-06-21T10:55:04.269Z,0.74
2017-06-21T10:55:58.305Z,0.96
2017-06-21T10:56:46.448Z,0.87
2017-06-21T10:57:35.479Z,0.65
2017-06-21T10:58:35.557Z,0.90
2017-06-21T10:59:24.640Z,0.99
2017-06-21T11:00:19.688Z,0.94
2017-06-21T11:01:13.752Z,0.61
2017-06-21T11:02:07.856Z,0.74
2017-06-21T11:03:07.956Z,0.85
2017-06-21T11:04:01.976Z,0.89
2017-06-21T11:05:02.146Z,0.72
2017-06-21T11:05:56.155Z,0.88
2017-06-21T11:06:44.206Z,0.91
2017-06-21T11:07:33.375Z,1.01
2017-06-21T11:08:28.926Z,1.04
2017-06-21T11:09:17.547Z,1.04
2017-06-21T11:10:06.638Z,1.03
2017-06-21T11:10:54.686Z,1.03
2017-06-21T11:11:48.779Z,1.00
2017-06-21T11:12:42.927Z,0.99
2017-06-21T11:13:32.228Z,0.99
2017-06-21T11:14:20.035Z,0.98
2017-06-21T11:15:14.078Z,1.02
2017-06-21T11:16:03.247Z,1.01
2017-06-21T11:16:52.265Z,1.01
2017-06-21T11:17:41.358Z,0.99
2017-06-21T11:18:35.712Z,0.97
2017-06-21T11:19:29.533Z,0.99
2017-06-21T11:20:23.633Z,0.99
2017-06-21T11:21:17.720Z,0.99
2017-06-21T11:22:17.822Z,1.01
2017-06-21T11:23:11.916Z,0.99
2017-06-21T11:24:06.192Z,0.99
2017-06-21T11:24:54.074Z,0.99
2017-06-21T11:25:42.188Z,0.92
2017-06-21T11:26:37.243Z,0.86
2017-06-21T11:27:26.331Z,0.99
2017-06-21T11:28:15.390Z,1.00
2017-06-21T11:29:10.529Z,1.00
2017-06-21T11:30:04.578Z,0.95
2017-06-21T11:30:58.670Z,0.90
2017-06-21T11:31:52.744Z,1.01
2017-06-21T11:32:47.846Z,1.06
2017-06-21T11:33:42.965Z,1.06
2017-06-21T11:34:37.335Z,1.06
2017-06-21T11:35:26.115Z,1.08
2017-06-21T11:36:21.212Z,1.08
2017-06-21T11:37:16.254Z,1.04
2017-06-21T11:38:10.351Z,0.82
2017-06-21T11:39:10.443Z,0.70
2017-06-21T11:40:04.900Z,0.87
2017-06-21T11:40:59.597Z,0.63
2017-06-21T11:41:54.722Z,0.56
2017-06-21T11:42:43.853Z,0.52
2017-06-21T11:43:37.855Z,0.75
2017-06-21T11:44:27.041Z,0.70
2017-06-21T11:45:21.070Z,0.77
2017-06-21T11:46:09.228Z,0.95
2017-06-21T11:47:03.234Z,0.99
2017-06-21T11:47:52.314Z,1.02
2017-06-21T11:48:41.396Z,0.94
2017-06-21T11:49:30.477Z,1.08
2017-06-21T11:50:24.551Z,1.06
2017-06-21T11:51:18.645Z,1.01
2017-06-21T11:52:07.753Z,0.97
2017-06-21T11:53:01.889Z,0.97
2017-06-21T11:54:01.922Z,0.82
2017-06-21T11:55:02.967Z,0.98
2017-06-21T11:56:03.073Z,0.87
2017-06-21T11:56:51.106Z,0.84
2017-06-21T11:57:39.259Z,1.00
2017-06-21T11:58:39.384Z,0.98
2017-06-21T11:59:39.457Z,0.99
2017-06-21T12:00:27.901Z,0.99
2017-06-21T12:01:16.650Z,0.97
2017-06-21T12:02:10.727Z,0.99
2017-06-21T12:03:10.812Z,0.98
2017-06-21T12:04:10.892Z,0.97
2017-06-21T12:05:05.955Z,0.95
2017-06-21T12:06:01.065Z,0.94